sensor_id;sensor_type;location;lat;lon;timestamp;P1;durP1;ratioP1;P2;durP2;ratioP2
50683;SDS011;36654;45.042;38.994;2023-05-16T00:00:35;10.35;;;7.45;;
50683;SDS011;36654;45.042;38.994;2023-05-16T00:03:03;12.13;;;7.32;;
50683;SDS011;36654;45.042;38.994;2023-05-16T00:05:29;12.10;;;7.78;;
50683;SDS011;36654;45.042;38.994;2023-05-16T00:07:55;9.45;;;7.60;;
50683;SDS011;36654;45.042;38.994;2023-05-16T00:10:20;9.95;;;7.18;;
50683;SDS011;36654;45.042;38.994;2023-05-16T00:12:46;8.93;;;6.68;;
50683;SDS011;36654;45.042;38.994;2023-05-16T00:15:15;16.42;;;7.55;;
50683;SDS011;36654;45.042;38.994;2023-05-16T00:17:42;10.60;;;7.50;;
50683;SDS011;36654;45.042;38.994;2023-05-16T00:20:11;11.55;;;7.38;;
50683;SDS011;36654;45.042;38.994;2023-05-16T00:22:38;10.10;;;7.55;;
50683;SDS011;36654;45.042;38.994;2023-05-16T00:25:05;9.85;;;7.18;;
50683;SDS011;36654;45.042;38.994;2023-05-16T00:27:32;11.00;;;7.40;;
50683;SDS011;36654;45.042;38.994;2023-05-16T00:29:59;12.32;;;8.02;;
50683;SDS011;36654;45.042;38.994;2023-05-16T00:32:25;10.55;;;7.60;;
50683;SDS011;36654;45.042;38.994;2023-05-16T00:34:51;10.85;;;7.45;;
50683;SDS011;36654;45.042;38.994;2023-05-16T00:37:17;9.85;;;7.97;;
50683;SDS011;36654;45.042;38.994;2023-05-16T00:39:42;14.80;;;8.10;;
50683;SDS011;36654;45.042;38.994;2023-05-16T00:42:08;12.18;;;8.57;;
50683;SDS011;36654;45.042;38.994;2023-05-16T00:44:34;16.65;;;7.97;;
50683;SDS011;36654;45.042;38.994;2023-05-16T00:46:59;15.98;;;8.65;;
50683;SDS011;36654;45.042;38.994;2023-05-16T00:49:26;21.63;;;9.40;;
50683;SDS011;36654;45.042;38.994;2023-05-16T00:51:53;10.23;;;8.02;;
50683;SDS011;36654;45.042;38.994;2023-05-16T00:54:21;10.93;;;8.25;;
50683;SDS011;36654;45.042;38.994;2023-05-16T00:56:47;13.75;;;9.27;;
50683;SDS011;36654;45.042;38.994;2023-05-16T00:59:13;15.30;;;9.13;;
50683;SDS011;36654;45.042;38.994;2023-05-16T01:01:40;11.23;;;8.68;;
50683;SDS011;36654;45.042;38.994;2023-05-16T01:04:07;15.48;;;9.02;;
50683;SDS011;36654;45.042;38.994;2023-05-16T01:06:33;14.50;;;9.75;;
50683;SDS011;36654;45.042;38.994;2023-05-16T01:08:59;13.18;;;9.70;;
50683;SDS011;36654;45.042;38.994;2023-05-16T01:14:22;17.20;;;9.98;;
50683;SDS011;36654;45.042;38.994;2023-05-16T01:22:13;16.30;;;10.13;;
50683;SDS011;36654;45.042;38.994;2023-05-16T01:24:58;16.15;;;9.98;;
50683;SDS011;36654;45.042;38.994;2023-05-16T01:27:44;15.00;;;10.57;;
50683;SDS011;36654;45.042;38.994;2023-05-16T01:30:14;15.32;;;10.38;;
50683;SDS011;36654;45.042;38.994;2023-05-16T01:32:41;13.25;;;10.55;;
50683;SDS011;36654;45.042;38.994;2023-05-16T01:35:08;19.60;;;10.63;;
50683;SDS011;36654;45.042;38.994;2023-05-16T01:43:04;16.08;;;9.82;;
50683;SDS011;36654;45.042;38.994;2023-05-16T01:45:36;12.45;;;9.90;;
50683;SDS011;36654;45.042;38.994;2023-05-16T01:48:07;13.00;;;9.73;;
50683;SDS011;36654;45.042;38.994;2023-05-16T01:50:39;13.25;;;10.02;;
50683;SDS011;36654;45.042;38.994;2023-05-16T01:53:14;12.77;;;9.57;;
50683;SDS011;36654;45.042;38.994;2023-05-16T01:55:45;14.88;;;9.70;;
50683;SDS011;36654;45.042;38.994;2023-05-16T01:58:13;14.35;;;10.13;;
50683;SDS011;36654;45.042;38.994;2023-05-16T02:00:41;14.15;;;9.98;;
50683;SDS011;36654;45.042;38.994;2023-05-16T02:03:07;15.32;;;10.18;;
50683;SDS011;36654;45.042;38.994;2023-05-16T02:05:33;11.52;;;8.88;;
50683;SDS011;36654;45.042;38.994;2023-05-16T02:07:59;16.70;;;10.27;;
50683;SDS011;36654;45.042;38.994;2023-05-16T02:10:25;14.13;;;9.38;;
50683;SDS011;36654;45.042;38.994;2023-05-16T02:12:52;17.42;;;9.73;;
50683;SDS011;36654;45.042;38.994;2023-05-16T02:15:17;13.73;;;10.05;;
50683;SDS011;36654;45.042;38.994;2023-05-16T02:17:43;15.98;;;9.85;;
50683;SDS011;36654;45.042;38.994;2023-05-16T02:20:09;12.38;;;9.88;;
50683;SDS011;36654;45.042;38.994;2023-05-16T02:22:36;12.82;;;9.43;;
50683;SDS011;36654;45.042;38.994;2023-05-16T02:25:03;16.80;;;9.07;;
50683;SDS011;36654;45.042;38.994;2023-05-16T02:27:30;16.02;;;9.32;;
50683;SDS011;36654;45.042;38.994;2023-05-16T02:29:56;11.02;;;8.23;;
50683;SDS011;36654;45.042;38.994;2023-05-16T02:32:22;12.93;;;8.98;;
50683;SDS011;36654;45.042;38.994;2023-05-16T02:34:48;11.65;;;8.73;;
50683;SDS011;36654;45.042;38.994;2023-05-16T02:37:14;13.85;;;8.77;;
50683;SDS011;36654;45.042;38.994;2023-05-16T02:39:40;14.32;;;8.35;;
50683;SDS011;36654;45.042;38.994;2023-05-16T02:42:06;12.68;;;8.30;;
50683;SDS011;36654;45.042;38.994;2023-05-16T02:44:31;12.75;;;8.23;;
50683;SDS011;36654;45.042;38.994;2023-05-16T02:46:57;12.52;;;8.13;;
50683;SDS011;36654;45.042;38.994;2023-05-16T02:49:23;11.52;;;8.52;;
50683;SDS011;36654;45.042;38.994;2023-05-16T02:51:48;10.70;;;8.63;;
50683;SDS011;36654;45.042;38.994;2023-05-16T02:54:14;14.00;;;8.13;;
50683;SDS011;36654;45.042;38.994;2023-05-16T02:56:40;15.13;;;8.65;;
50683;SDS011;36654;45.042;38.994;2023-05-16T02:59:06;14.05;;;7.85;;
50683;SDS011;36654;45.042;38.994;2023-05-16T03:01:31;12.00;;;8.02;;
50683;SDS011;36654;45.042;38.994;2023-05-16T03:03:58;13.40;;;7.68;;
50683;SDS011;36654;45.042;38.994;2023-05-16T03:06:24;12.93;;;8.32;;
50683;SDS011;36654;45.042;38.994;2023-05-16T03:08:49;15.75;;;8.52;;
50683;SDS011;36654;45.042;38.994;2023-05-16T03:11:16;14.73;;;8.48;;
50683;SDS011;36654;45.042;38.994;2023-05-16T03:13:45;13.23;;;8.00;;
50683;SDS011;36654;45.042;38.994;2023-05-16T03:16:11;13.50;;;8.32;;
50683;SDS011;36654;45.042;38.994;2023-05-16T03:18:37;16.38;;;8.80;;
50683;SDS011;36654;45.042;38.994;2023-05-16T03:21:02;8.60;;;7.13;;
50683;SDS011;36654;45.042;38.994;2023-05-16T03:23:28;12.00;;;8.27;;
50683;SDS011;36654;45.042;38.994;2023-05-16T03:25:54;10.70;;;6.38;;
50683;SDS011;36654;45.042;38.994;2023-05-16T03:28:20;9.48;;;7.30;;
50683;SDS011;36654;45.042;38.994;2023-05-16T03:30:46;11.13;;;6.93;;
50683;SDS011;36654;45.042;38.994;2023-05-16T03:33:11;8.20;;;6.50;;
50683;SDS011;36654;45.042;38.994;2023-05-16T03:35:37;10.25;;;6.03;;
50683;SDS011;36654;45.042;38.994;2023-05-16T03:38:03;11.48;;;6.90;;
50683;SDS011;36654;45.042;38.994;2023-05-16T03:40:29;10.73;;;5.88;;
50683;SDS011;36654;45.042;38.994;2023-05-16T03:42:55;12.50;;;6.82;;
50683;SDS011;36654;45.042;38.994;2023-05-16T03:45:20;9.82;;;6.13;;
50683;SDS011;36654;45.042;38.994;2023-05-16T03:47:47;6.97;;;5.95;;
50683;SDS011;36654;45.042;38.994;2023-05-16T03:50:13;11.70;;;5.85;;
50683;SDS011;36654;45.042;38.994;2023-05-16T03:52:39;9.85;;;6.22;;
50683;SDS011;36654;45.042;38.994;2023-05-16T03:55:05;9.80;;;6.20;;
50683;SDS011;36654;45.042;38.994;2023-05-16T03:57:31;15.30;;;6.25;;
50683;SDS011;36654;45.042;38.994;2023-05-16T03:59:58;13.55;;;6.68;;
50683;SDS011;36654;45.042;38.994;2023-05-16T04:02:24;8.50;;;5.93;;
50683;SDS011;36654;45.042;38.994;2023-05-16T04:04:49;10.95;;;5.82;;
50683;SDS011;36654;45.042;38.994;2023-05-16T04:07:15;7.70;;;5.68;;
50683;SDS011;36654;45.042;38.994;2023-05-16T04:09:41;12.13;;;6.20;;
50683;SDS011;36654;45.042;38.994;2023-05-16T04:12:06;10.48;;;6.05;;
50683;SDS011;36654;45.042;38.994;2023-05-16T04:14:33;8.88;;;6.10;;
50683;SDS011;36654;45.042;38.994;2023-05-16T04:16:59;10.40;;;5.90;;
50683;SDS011;36654;45.042;38.994;2023-05-16T04:19:25;8.60;;;6.07;;
50683;SDS011;36654;45.042;38.994;2023-05-16T04:21:51;9.73;;;5.53;;
50683;SDS011;36654;45.042;38.994;2023-05-16T04:24:16;9.63;;;5.85;;
50683;SDS011;36654;45.042;38.994;2023-05-16T04:26:42;8.55;;;6.05;;
50683;SDS011;36654;45.042;38.994;2023-05-16T04:29:08;12.95;;;6.75;;
50683;SDS011;36654;45.042;38.994;2023-05-16T04:31:35;24.77;;;13.63;;
50683;SDS011;36654;45.042;38.994;2023-05-16T04:34:01;18.58;;;12.18;;
50683;SDS011;36654;45.042;38.994;2023-05-16T04:36:36;14.50;;;7.38;;
50683;SDS011;36654;45.042;38.994;2023-05-16T04:39:02;21.48;;;11.80;;
50683;SDS011;36654;45.042;38.994;2023-05-16T04:41:28;19.13;;;11.32;;
50683;SDS011;36654;45.042;38.994;2023-05-16T04:43:57;11.18;;;8.23;;
50683;SDS011;36654;45.042;38.994;2023-05-16T04:46:22;15.32;;;7.18;;
50683;SDS011;36654;45.042;38.994;2023-05-16T04:48:51;22.38;;;13.35;;
50683;SDS011;36654;45.042;38.994;2023-05-16T04:53:48;18.88;;;8.02;;
50683;SDS011;36654;45.042;38.994;2023-05-16T04:56:14;15.05;;;7.13;;
50683;SDS011;36654;45.042;38.994;2023-05-16T04:58:39;13.80;;;7.47;;
50683;SDS011;36654;45.042;38.994;2023-05-16T05:01:05;13.90;;;8.07;;
50683;SDS011;36654;45.042;38.994;2023-05-16T05:03:31;18.92;;;8.45;;
50683;SDS011;36654;45.042;38.994;2023-05-16T05:05:56;11.50;;;7.43;;
50683;SDS011;36654;45.042;38.994;2023-05-16T05:08:22;15.18;;;8.20;;
50683;SDS011;36654;45.042;38.994;2023-05-16T05:10:47;12.60;;;8.13;;
50683;SDS011;36654;45.042;38.994;2023-05-16T05:13:13;14.18;;;8.63;;
50683;SDS011;36654;45.042;38.994;2023-05-16T05:15:39;17.48;;;9.07;;
50683;SDS011;36654;45.042;38.994;2023-05-16T05:18:04;36.05;;;23.38;;
50683;SDS011;36654;45.042;38.994;2023-05-16T05:20:30;19.08;;;8.90;;
50683;SDS011;36654;45.042;38.994;2023-05-16T05:22:56;17.52;;;9.27;;
50683;SDS011;36654;45.042;38.994;2023-05-16T05:25:21;11.43;;;7.70;;
50683;SDS011;36654;45.042;38.994;2023-05-16T05:27:47;18.58;;;8.52;;
50683;SDS011;36654;45.042;38.994;2023-05-16T05:30:12;17.33;;;8.23;;
50683;SDS011;36654;45.042;38.994;2023-05-16T05:32:38;12.75;;;5.65;;
50683;SDS011;36654;45.042;38.994;2023-05-16T05:35:04;14.05;;;6.55;;
50683;SDS011;36654;45.042;38.994;2023-05-16T05:37:30;13.15;;;6.07;;
50683;SDS011;36654;45.042;38.994;2023-05-16T05:39:56;10.35;;;5.85;;
50683;SDS011;36654;45.042;38.994;2023-05-16T05:42:22;12.10;;;6.05;;
50683;SDS011;36654;45.042;38.994;2023-05-16T05:44:47;13.38;;;5.40;;
50683;SDS011;36654;45.042;38.994;2023-05-16T05:47:13;10.90;;;5.88;;
50683;SDS011;36654;45.042;38.994;2023-05-16T05:49:39;13.25;;;5.65;;
50683;SDS011;36654;45.042;38.994;2023-05-16T05:52:05;10.15;;;5.57;;
50683;SDS011;36654;45.042;38.994;2023-05-16T05:54:31;12.43;;;5.25;;
50683;SDS011;36654;45.042;38.994;2023-05-16T05:56:57;7.43;;;4.82;;
50683;SDS011;36654;45.042;38.994;2023-05-16T05:59:23;9.93;;;6.00;;
50683;SDS011;36654;45.042;38.994;2023-05-16T06:01:49;10.35;;;6.32;;
50683;SDS011;36654;45.042;38.994;2023-05-16T06:04:18;14.73;;;5.35;;
50683;SDS011;36654;45.042;38.994;2023-05-16T06:06:44;10.93;;;5.30;;
50683;SDS011;36654;45.042;38.994;2023-05-16T06:09:10;14.13;;;5.38;;
50683;SDS011;36654;45.042;38.994;2023-05-16T06:11:38;11.63;;;5.75;;
50683;SDS011;36654;45.042;38.994;2023-05-16T06:14:03;9.80;;;5.28;;
50683;SDS011;36654;45.042;38.994;2023-05-16T06:16:29;9.77;;;5.65;;
50683;SDS011;36654;45.042;38.994;2023-05-16T06:18:55;13.48;;;6.18;;
50683;SDS011;36654;45.042;38.994;2023-05-16T06:21:21;12.23;;;4.97;;
50683;SDS011;36654;45.042;38.994;2023-05-16T06:23:46;10.93;;;4.78;;
50683;SDS011;36654;45.042;38.994;2023-05-16T06:26:12;15.18;;;9.40;;
50683;SDS011;36654;45.042;38.994;2023-05-16T06:28:38;30.52;;;11.50;;
50683;SDS011;36654;45.042;38.994;2023-05-16T06:31:03;12.30;;;5.65;;
50683;SDS011;36654;45.042;38.994;2023-05-16T06:33:29;18.60;;;8.15;;
50683;SDS011;36654;45.042;38.994;2023-05-16T06:35:55;11.35;;;5.25;;
50683;SDS011;36654;45.042;38.994;2023-05-16T06:38:20;9.32;;;5.40;;
50683;SDS011;36654;45.042;38.994;2023-05-16T06:40:46;10.82;;;5.32;;
50683;SDS011;36654;45.042;38.994;2023-05-16T06:43:11;12.05;;;5.35;;
50683;SDS011;36654;45.042;38.994;2023-05-16T06:45:37;9.30;;;5.32;;
50683;SDS011;36654;45.042;38.994;2023-05-16T06:48:03;11.68;;;5.32;;
50683;SDS011;36654;45.042;38.994;2023-05-16T06:50:30;8.48;;;5.10;;
50683;SDS011;36654;45.042;38.994;2023-05-16T06:52:55;14.18;;;4.63;;
50683;SDS011;36654;45.042;38.994;2023-05-16T06:55:21;16.38;;;6.32;;
50683;SDS011;36654;45.042;38.994;2023-05-16T06:57:47;15.32;;;6.03;;
50683;SDS011;36654;45.042;38.994;2023-05-16T07:00:13;7.40;;;5.00;;
50683;SDS011;36654;45.042;38.994;2023-05-16T07:02:39;11.90;;;4.75;;
50683;SDS011;36654;45.042;38.994;2023-05-16T07:05:05;14.85;;;5.70;;
50683;SDS011;36654;45.042;38.994;2023-05-16T07:07:31;16.88;;;6.13;;
50683;SDS011;36654;45.042;38.994;2023-05-16T07:09:57;15.77;;;4.97;;
50683;SDS011;36654;45.042;38.994;2023-05-16T07:12:23;13.63;;;7.70;;
50683;SDS011;36654;45.042;38.994;2023-05-16T07:14:48;12.88;;;5.20;;
50683;SDS011;36654;45.042;38.994;2023-05-16T07:17:14;13.63;;;8.45;;
50683;SDS011;36654;45.042;38.994;2023-05-16T07:19:40;8.07;;;5.68;;
50683;SDS011;36654;45.042;38.994;2023-05-16T07:22:06;12.48;;;5.38;;
50683;SDS011;36654;45.042;38.994;2023-05-16T07:24:31;11.70;;;6.63;;
50683;SDS011;36654;45.042;38.994;2023-05-16T07:26:57;12.45;;;5.28;;
50683;SDS011;36654;45.042;38.994;2023-05-16T07:29:23;11.90;;;4.70;;
50683;SDS011;36654;45.042;38.994;2023-05-16T07:31:49;12.45;;;4.97;;
50683;SDS011;36654;45.042;38.994;2023-05-16T07:34:15;9.13;;;4.88;;
50683;SDS011;36654;45.042;38.994;2023-05-16T07:36:41;11.50;;;4.53;;
50683;SDS011;36654;45.042;38.994;2023-05-16T07:39:06;9.18;;;5.05;;
50683;SDS011;36654;45.042;38.994;2023-05-16T07:41:32;9.95;;;4.88;;
50683;SDS011;36654;45.042;38.994;2023-05-16T07:43:58;8.70;;;5.07;;
50683;SDS011;36654;45.042;38.994;2023-05-16T07:46:23;13.95;;;4.93;;
50683;SDS011;36654;45.042;38.994;2023-05-16T07:48:49;9.95;;;4.65;;
50683;SDS011;36654;45.042;38.994;2023-05-16T07:51:15;10.88;;;5.45;;
50683;SDS011;36654;45.042;38.994;2023-05-16T07:53:41;13.95;;;5.95;;
50683;SDS011;36654;45.042;38.994;2023-05-16T07:56:06;9.40;;;5.22;;
50683;SDS011;36654;45.042;38.994;2023-05-16T07:58:35;15.82;;;5.10;;
50683;SDS011;36654;45.042;38.994;2023-05-16T08:01:05;10.68;;;5.03;;
50683;SDS011;36654;45.042;38.994;2023-05-16T08:03:31;5.82;;;4.70;;
50683;SDS011;36654;45.042;38.994;2023-05-16T08:05:57;9.35;;;4.65;;
50683;SDS011;36654;45.042;38.994;2023-05-16T08:08:22;13.68;;;5.18;;
50683;SDS011;36654;45.042;38.994;2023-05-16T08:10:48;11.05;;;5.60;;
50683;SDS011;36654;45.042;38.994;2023-05-16T08:13:13;21.55;;;10.00;;
50683;SDS011;36654;45.042;38.994;2023-05-16T08:15:39;10.07;;;5.15;;
50683;SDS011;36654;45.042;38.994;2023-05-16T08:18:05;9.45;;;4.57;;
50683;SDS011;36654;45.042;38.994;2023-05-16T08:20:40;11.85;;;4.78;;
50683;SDS011;36654;45.042;38.994;2023-05-16T08:23:06;8.85;;;4.60;;
50683;SDS011;36654;45.042;38.994;2023-05-16T08:25:33;11.95;;;4.95;;
50683;SDS011;36654;45.042;38.994;2023-05-16T08:27:58;9.90;;;5.00;;
50683;SDS011;36654;45.042;38.994;2023-05-16T08:30:26;7.80;;;5.05;;
50683;SDS011;36654;45.042;38.994;2023-05-16T08:32:52;12.52;;;5.80;;
50683;SDS011;36654;45.042;38.994;2023-05-16T08:35:17;8.90;;;4.80;;
50683;SDS011;36654;45.042;38.994;2023-05-16T08:37:43;11.02;;;5.47;;
50683;SDS011;36654;45.042;38.994;2023-05-16T08:40:09;8.75;;;5.32;;
50683;SDS011;36654;45.042;38.994;2023-05-16T08:42:36;11.90;;;5.10;;
50683;SDS011;36654;45.042;38.994;2023-05-16T08:45:02;11.45;;;4.70;;
50683;SDS011;36654;45.042;38.994;2023-05-16T08:47:29;7.45;;;4.50;;
50683;SDS011;36654;45.042;38.994;2023-05-16T08:49:56;8.32;;;5.40;;
50683;SDS011;36654;45.042;38.994;2023-05-16T08:52:25;11.45;;;5.43;;
50683;SDS011;36654;45.042;38.994;2023-05-16T08:54:58;7.95;;;4.32;;
50683;SDS011;36654;45.042;38.994;2023-05-16T08:57:32;8.68;;;4.60;;
50683;SDS011;36654;45.042;38.994;2023-05-16T08:59:58;21.55;;;7.95;;
50683;SDS011;36654;45.042;38.994;2023-05-16T09:02:25;12.07;;;5.30;;
50683;SDS011;36654;45.042;38.994;2023-05-16T09:04:54;15.23;;;5.40;;
50683;SDS011;36654;45.042;38.994;2023-05-16T09:07:22;11.02;;;5.72;;
50683;SDS011;36654;45.042;38.994;2023-05-16T09:09:47;7.40;;;4.55;;
50683;SDS011;36654;45.042;38.994;2023-05-16T09:12:13;7.60;;;4.30;;
50683;SDS011;36654;45.042;38.994;2023-05-16T09:14:39;9.98;;;4.53;;
50683;SDS011;36654;45.042;38.994;2023-05-16T09:17:05;10.88;;;4.13;;
50683;SDS011;36654;45.042;38.994;2023-05-16T09:19:36;11.27;;;5.18;;
50683;SDS011;36654;45.042;38.994;2023-05-16T09:22:07;12.02;;;6.05;;
50683;SDS011;36654;45.042;38.994;2023-05-16T09:24:38;7.03;;;4.35;;
50683;SDS011;36654;45.042;38.994;2023-05-16T09:27:07;10.20;;;4.65;;
50683;SDS011;36654;45.042;38.994;2023-05-16T09:29:34;12.57;;;6.20;;
50683;SDS011;36654;45.042;38.994;2023-05-16T09:32:18;8.57;;;4.63;;
50683;SDS011;36654;45.042;38.994;2023-05-16T09:34:44;10.50;;;4.75;;
50683;SDS011;36654;45.042;38.994;2023-05-16T09:37:13;9.90;;;4.60;;
50683;SDS011;36654;45.042;38.994;2023-05-16T09:39:40;8.98;;;4.35;;
50683;SDS011;36654;45.042;38.994;2023-05-16T09:42:12;8.52;;;4.22;;
50683;SDS011;36654;45.042;38.994;2023-05-16T09:44:38;7.95;;;4.05;;
50683;SDS011;36654;45.042;38.994;2023-05-16T09:47:05;10.27;;;4.25;;
50683;SDS011;36654;45.042;38.994;2023-05-16T09:49:31;25.45;;;10.38;;
50683;SDS011;36654;45.042;38.994;2023-05-16T09:52:00;13.75;;;4.80;;
50683;SDS011;36654;45.042;38.994;2023-05-16T09:54:33;10.50;;;4.93;;
50683;SDS011;36654;45.042;38.994;2023-05-16T09:56:59;9.43;;;4.22;;
50683;SDS011;36654;45.042;38.994;2023-05-16T09:59:28;8.20;;;4.63;;
50683;SDS011;36654;45.042;38.994;2023-05-16T10:01:57;12.38;;;5.20;;
50683;SDS011;36654;45.042;38.994;2023-05-16T10:04:24;9.50;;;4.30;;
50683;SDS011;36654;45.042;38.994;2023-05-16T10:06:50;5.85;;;4.22;;
50683;SDS011;36654;45.042;38.994;2023-05-16T10:09:19;8.05;;;4.63;;
50683;SDS011;36654;45.042;38.994;2023-05-16T10:11:46;11.93;;;4.72;;
50683;SDS011;36654;45.042;38.994;2023-05-16T10:14:16;10.23;;;4.78;;
50683;SDS011;36654;45.042;38.994;2023-05-16T10:16:43;13.52;;;5.28;;
50683;SDS011;36654;45.042;38.994;2023-05-16T10:19:12;9.55;;;4.65;;
50683;SDS011;36654;45.042;38.994;2023-05-16T10:21:39;8.52;;;4.82;;
50683;SDS011;36654;45.042;38.994;2023-05-16T10:24:10;7.18;;;4.30;;
50683;SDS011;36654;45.042;38.994;2023-05-16T10:26:42;8.60;;;4.30;;
50683;SDS011;36654;45.042;38.994;2023-05-16T10:29:07;11.45;;;4.95;;
50683;SDS011;36654;45.042;38.994;2023-05-16T10:31:34;13.27;;;5.95;;
50683;SDS011;36654;45.042;38.994;2023-05-16T10:34:00;11.30;;;6.40;;
50683;SDS011;36654;45.042;38.994;2023-05-16T10:36:26;6.70;;;4.72;;
50683;SDS011;36654;45.042;38.994;2023-05-16T10:38:55;10.90;;;4.28;;
50683;SDS011;36654;45.042;38.994;2023-05-16T10:41:22;10.82;;;4.28;;
50683;SDS011;36654;45.042;38.994;2023-05-16T10:43:56;10.73;;;4.70;;
50683;SDS011;36654;45.042;38.994;2023-05-16T10:46:22;8.95;;;4.63;;
50683;SDS011;36654;45.042;38.994;2023-05-16T10:48:49;10.15;;;4.88;;
50683;SDS011;36654;45.042;38.994;2023-05-16T10:53:46;11.27;;;4.85;;
50683;SDS011;36654;45.042;38.994;2023-05-16T10:56:15;6.43;;;4.22;;
50683;SDS011;36654;45.042;38.994;2023-05-16T10:58:47;5.20;;;4.28;;
50683;SDS011;36654;45.042;38.994;2023-05-16T11:09:05;7.43;;;4.68;;
50683;SDS011;36654;45.042;38.994;2023-05-16T11:12:18;8.98;;;5.75;;
50683;SDS011;36654;45.042;38.994;2023-05-16T11:14:34;8.30;;;4.70;;
50683;SDS011;36654;45.042;38.994;2023-05-16T11:17:09;7.25;;;4.85;;
50683;SDS011;36654;45.042;38.994;2023-05-16T11:24:54;8.57;;;4.32;;
50683;SDS011;36654;45.042;38.994;2023-05-16T11:27:30;7.07;;;3.97;;
50683;SDS011;36654;45.042;38.994;2023-05-16T11:29:59;16.50;;;5.53;;
50683;SDS011;36654;45.042;38.994;2023-05-16T11:32:34;17.40;;;7.63;;
50683;SDS011;36654;45.042;38.994;2023-05-16T11:35:04;12.60;;;6.60;;
50683;SDS011;36654;45.042;38.994;2023-05-16T11:37:32;11.85;;;4.68;;
50683;SDS011;36654;45.042;38.994;2023-05-16T11:39:58;6.72;;;4.70;;
50683;SDS011;36654;45.042;38.994;2023-05-16T11:42:27;7.38;;;4.80;;
50683;SDS011;36654;45.042;38.994;2023-05-16T11:45:05;9.10;;;4.40;;
50683;SDS011;36654;45.042;38.994;2023-05-16T11:47:32;7.03;;;4.70;;
50683;SDS011;36654;45.042;38.994;2023-05-16T11:49:58;8.35;;;4.35;;
50683;SDS011;36654;45.042;38.994;2023-05-16T11:52:23;9.10;;;3.92;;
50683;SDS011;36654;45.042;38.994;2023-05-16T11:54:50;9.05;;;3.78;;
50683;SDS011;36654;45.042;38.994;2023-05-16T11:57:16;7.43;;;4.25;;
50683;SDS011;36654;45.042;38.994;2023-05-16T11:59:42;10.98;;;4.32;;
50683;SDS011;36654;45.042;38.994;2023-05-16T12:02:08;6.60;;;4.10;;
50683;SDS011;36654;45.042;38.994;2023-05-16T12:04:34;8.45;;;3.97;;
50683;SDS011;36654;45.042;38.994;2023-05-16T12:07:02;9.77;;;4.80;;
50683;SDS011;36654;45.042;38.994;2023-05-16T12:09:29;8.73;;;4.30;;
50683;SDS011;36654;45.042;38.994;2023-05-16T12:11:55;9.32;;;4.40;;
50683;SDS011;36654;45.042;38.994;2023-05-16T12:14:21;10.90;;;3.97;;
50683;SDS011;36654;45.042;38.994;2023-05-16T12:16:47;8.32;;;3.83;;
50683;SDS011;36654;45.042;38.994;2023-05-16T12:19:16;7.35;;;3.83;;
50683;SDS011;36654;45.042;38.994;2023-05-16T12:21:41;5.03;;;3.90;;
50683;SDS011;36654;45.042;38.994;2023-05-16T12:24:10;8.73;;;4.07;;
50683;SDS011;36654;45.042;38.994;2023-05-16T12:26:38;10.18;;;3.97;;
50683;SDS011;36654;45.042;38.994;2023-05-16T12:29:04;7.75;;;3.60;;
50683;SDS011;36654;45.042;38.994;2023-05-16T12:31:31;5.00;;;3.45;;
50683;SDS011;36654;45.042;38.994;2023-05-16T12:34:01;13.75;;;4.40;;
50683;SDS011;36654;45.042;38.994;2023-05-16T12:36:30;6.20;;;3.63;;
50683;SDS011;36654;45.042;38.994;2023-05-16T12:39:00;9.32;;;4.05;;
50683;SDS011;36654;45.042;38.994;2023-05-16T12:41:28;11.85;;;4.18;;
50683;SDS011;36654;45.042;38.994;2023-05-16T12:44:10;5.53;;;3.65;;
50683;SDS011;36654;45.042;38.994;2023-05-16T12:46:42;6.25;;;3.65;;
50683;SDS011;36654;45.042;38.994;2023-05-16T12:49:08;7.72;;;3.50;;
50683;SDS011;36654;45.042;38.994;2023-05-16T12:51:34;7.03;;;3.90;;
50683;SDS011;36654;45.042;38.994;2023-05-16T12:54:07;12.63;;;4.22;;
50683;SDS011;36654;45.042;38.994;2023-05-16T12:56:36;8.27;;;3.40;;
50683;SDS011;36654;45.042;38.994;2023-05-16T12:59:03;5.90;;;3.47;;
50683;SDS011;36654;45.042;38.994;2023-05-16T13:01:29;6.35;;;3.70;;
50683;SDS011;36654;45.042;38.994;2023-05-16T13:03:54;8.50;;;4.03;;
50683;SDS011;36654;45.042;38.994;2023-05-16T13:06:20;9.27;;;4.38;;
50683;SDS011;36654;45.042;38.994;2023-05-16T13:08:46;5.45;;;4.15;;
50683;SDS011;36654;45.042;38.994;2023-05-16T13:11:11;12.70;;;4.22;;
50683;SDS011;36654;45.042;38.994;2023-05-16T13:13:37;8.15;;;3.70;;
50683;SDS011;36654;45.042;38.994;2023-05-16T13:16:03;6.07;;;3.70;;
50683;SDS011;36654;45.042;38.994;2023-05-16T13:18:29;6.55;;;3.92;;
50683;SDS011;36654;45.042;38.994;2023-05-16T13:20:55;9.20;;;4.35;;
50683;SDS011;36654;45.042;38.994;2023-05-16T13:23:21;8.05;;;3.95;;
50683;SDS011;36654;45.042;38.994;2023-05-16T13:25:46;6.95;;;3.45;;
50683;SDS011;36654;45.042;38.994;2023-05-16T13:28:15;7.57;;;3.67;;
50683;SDS011;36654;45.042;38.994;2023-05-16T13:30:41;5.95;;;3.28;;
50683;SDS011;36654;45.042;38.994;2023-05-16T13:33:06;7.50;;;3.78;;
50683;SDS011;36654;45.042;38.994;2023-05-16T13:35:32;4.50;;;3.38;;
50683;SDS011;36654;45.042;38.994;2023-05-16T13:37:58;4.82;;;3.75;;
50683;SDS011;36654;45.042;38.994;2023-05-16T13:40:23;3.65;;;3.35;;
50683;SDS011;36654;45.042;38.994;2023-05-16T13:42:49;5.97;;;3.47;;
50683;SDS011;36654;45.042;38.994;2023-05-16T13:45:15;6.53;;;3.88;;
50683;SDS011;36654;45.042;38.994;2023-05-16T13:47:41;7.80;;;3.58;;
50683;SDS011;36654;45.042;38.994;2023-05-16T13:50:07;7.13;;;3.92;;
50683;SDS011;36654;45.042;38.994;2023-05-16T13:52:34;10.45;;;3.97;;
50683;SDS011;36654;45.042;38.994;2023-05-16T13:55:01;3.95;;;3.08;;
50683;SDS011;36654;45.042;38.994;2023-05-16T13:57:27;8.48;;;3.38;;
50683;SDS011;36654;45.042;38.994;2023-05-16T13:59:53;4.50;;;3.22;;
50683;SDS011;36654;45.042;38.994;2023-05-16T14:02:19;9.23;;;3.55;;
50683;SDS011;36654;45.042;38.994;2023-05-16T14:04:45;6.13;;;3.70;;
50683;SDS011;36654;45.042;38.994;2023-05-16T14:07:10;5.95;;;3.15;;
50683;SDS011;36654;45.042;38.994;2023-05-16T14:09:36;6.60;;;3.42;;
50683;SDS011;36654;45.042;38.994;2023-05-16T14:12:06;10.77;;;3.83;;
50683;SDS011;36654;45.042;38.994;2023-05-16T14:14:35;10.63;;;3.95;;
50683;SDS011;36654;45.042;38.994;2023-05-16T14:17:02;8.43;;;3.90;;
50683;SDS011;36654;45.042;38.994;2023-05-16T14:19:31;5.50;;;3.13;;
50683;SDS011;36654;45.042;38.994;2023-05-16T14:21:56;6.32;;;3.50;;
50683;SDS011;36654;45.042;38.994;2023-05-16T14:24:22;10.68;;;4.63;;
50683;SDS011;36654;45.042;38.994;2023-05-16T14:26:51;8.63;;;5.32;;
50683;SDS011;36654;45.042;38.994;2023-05-16T14:29:19;8.73;;;3.47;;
50683;SDS011;36654;45.042;38.994;2023-05-16T14:31:45;5.15;;;3.45;;
50683;SDS011;36654;45.042;38.994;2023-05-16T14:34:11;3.85;;;3.17;;
50683;SDS011;36654;45.042;38.994;2023-05-16T14:36:37;6.47;;;3.45;;
50683;SDS011;36654;45.042;38.994;2023-05-16T14:39:02;8.18;;;3.35;;
50683;SDS011;36654;45.042;38.994;2023-05-16T14:41:28;6.35;;;3.47;;
50683;SDS011;36654;45.042;38.994;2023-05-16T14:43:54;9.00;;;3.95;;
50683;SDS011;36654;45.042;38.994;2023-05-16T14:46:20;11.57;;;4.72;;
50683;SDS011;36654;45.042;38.994;2023-05-16T14:48:45;6.13;;;3.38;;
50683;SDS011;36654;45.042;38.994;2023-05-16T14:51:11;7.20;;;3.67;;
50683;SDS011;36654;45.042;38.994;2023-05-16T14:53:37;8.40;;;3.10;;
50683;SDS011;36654;45.042;38.994;2023-05-16T14:56:03;10.63;;;3.58;;